Time;durP1;ratioP1;P1;durP2;ratioP2;P2;SDS_P1;SDS_P2;PMS_P1;PMS_P2;Temp;Humidity;BMP_temperature;BMP_pressure;BME280_temperature;BME280_humidity;BME280_pressure;Samples;Min_cycle;Max_cycle;Signal;HPM_P1;HPM_P2
2024/02/23 00:03:10;;;;;;;8.00;7.00;;;;;;;6.94;100.00;97315.91;451565;1256;139491;-65
2024/02/23 00:13:16;;;;;;;7.50;6.10;;;;;;;7.00;100.00;97307.05;451575;1255;139273;-66
2024/02/23 00:23:22;;;;;;;6.50;5.20;;;;;;;7.08;100.00;97300.11;451420;1253;139850;-57
2024/02/23 00:33:28;;;;;;;6.30;5.30;;;;;;;7.17;100.00;97292.38;451544;1254;139498;-57
2024/02/23 00:43:41;;;;;;;7.00;5.60;;;;;;;7.25;100.00;97290.31;451496;1254;139340;-55
2024/02/23 00:53:47;;;;;;;4.90;4.00;;;;;;;7.34;100.00;97278.88;451573;1254;139288;-56
2024/02/23 01:03:53;;;;;;;4.20;3.80;;;;;;;7.42;100.00;97272.77;451444;1254;139582;-57
2024/02/23 01:14:00;;;;;;;4.60;3.50;;;;;;;7.51;100.00;97271.45;451503;1254;140124;-57
2024/02/23 01:24:08;;;;;;;3.70;2.90;;;;;;;7.61;100.00;97261.53;449757;1254;140004;-64
2024/02/23 01:34:14;;;;;;;4.60;3.20;;;;;;;7.64;100.00;97256.59;436466;1254;139531;-64
2024/02/23 01:44:21;;;;;;;4.30;3.50;;;;;;;7.60;100.00;97262.00;446236;1254;139376;-57
2024/02/23 01:54:29;;;;;;;6.50;3.40;;;;;;;7.55;100.00;97266.92;451372;1253;139007;-57
2024/02/23 02:04:33;;;;;;;;;;;;;;;7.54;100.00;97265.48;451458;1254;138854;-66
2024/02/23 02:14:41;;;;;;;3.50;3.10;;;;;;;7.51;100.00;97268.89;451450;1254;125603;-64
2024/02/23 02:24:48;;;;;;;2.90;2.70;;;;;;;7.46;100.00;97274.52;451523;1253;139100;-64
2024/02/23 02:34:56;;;;;;;4.10;3.70;;;;;;;7.41;100.00;97274.81;451457;1254;139993;-65
2024/02/23 02:45:02;;;;;;;3.70;3.20;;;;;;;7.35;100.00;97278.98;451664;1254;139739;-64
2024/02/23 02:55:10;;;;;;;4.70;3.70;;;;;;;7.29;100.00;97284.14;451702;1254;139057;-57
2024/02/23 03:05:16;;;;;;;3.30;2.90;;;;;;;7.24;100.00;97291.77;451502;1254;139652;-57
2024/02/23 03:15:24;;;;;;;3.40;3.10;;;;;;;7.24;100.00;97293.48;451432;1254;139547;-57
2024/02/23 03:25:32;;;;;;;3.90;3.50;;;;;;;7.24;100.00;97289.98;451463;1252;139032;-57
2024/02/23 03:35:40;;;;;;;4.00;3.60;;;;;;;7.25;100.00;97305.19;451515;1252;139918;-57
2024/02/23 03:45:46;;;;;;;4.50;4.10;;;;;;;7.26;100.00;97315.59;451290;1253;138965;-56
2024/02/23 03:55:53;;;;;;;5.10;4.10;;;;;;;7.25;100.00;97318.29;451447;1252;139714;-57
2024/02/23 04:06:01;;;;;;;3.40;3.10;;;;;;;7.20;100.00;97322.04;451721;1253;140199;-56
2024/02/23 04:16:09;;;;;;;5.70;4.10;;;;;;;7.14;100.00;97325.99;451286;1252;139879;-61
2024/02/23 04:26:16;;;;;;;3.90;3.40;;;;;;;7.09;100.00;97330.13;451496;1253;140349;-61
2024/02/23 04:36:22;;;;;;;4.40;4.00;;;;;;;7.05;100.00;97344.71;451497;1252;139540;-61
2024/02/23 04:46:31;;;;;;;4.60;3.00;;;;;;;7.02;100.00;97352.80;451423;1252;139625;-62
2024/02/23 04:56:38;;;;;;;6.20;3.90;;;;;;;6.99;100.00;97365.54;451413;1253;138976;-57
2024/02/23 05:06:46;;;;;;;4.40;3.70;;;;;;;6.97;100.00;97372.52;451528;1252;139471;-57
2024/02/23 05:16:52;;;;;;;6.30;4.20;;;;;;;6.96;100.00;97377.13;450750;1252;139926;-57
2024/02/23 05:27:01;;;;;;;4.60;3.80;;;;;;;6.92;100.00;97386.89;451435;1252;139099;-60
2024/02/23 05:37:08;;;;;;;4.90;4.30;;;;;;;6.89;100.00;97405.34;451545;1252;139630;-61
2024/02/23 05:47:14;;;;;;;5.20;4.70;;;;;;;6.89;100.00;97425.88;451487;1252;138882;-64
2024/02/23 05:57:20;;;;;;;4.30;3.90;;;;;;;6.88;100.00;97441.25;451381;1252;139450;-65
2024/02/23 06:07:28;;;;;;;8.60;4.30;;;;;;;6.91;100.00;97460.30;451475;1252;138791;-56
2024/02/23 06:17:35;;;;;;;4.90;3.90;;;;;;;6.93;100.00;97473.84;451437;1252;138833;-57
2024/02/23 06:27:41;;;;;;;4.70;4.10;;;;;;;6.97;100.00;97490.96;451334;1252;139432;-63
2024/02/23 06:37:51;;;;;;;5.70;4.40;;;;;;;6.99;100.00;97504.71;449787;1252;5109877;-60
2024/02/23 06:47:57;;;;;;;3.90;3.40;;;;;;;7.00;100.00;97519.94;451317;1252;139807;-60
2024/02/23 06:58:04;;;;;;;4.00;3.70;;;;;;;7.02;100.00;97531.79;451313;1252;140074;-60
2024/02/23 07:08:09;;;;;;;;;;;;;;;7.06;100.00;97545.00;451467;1253;139956;-60
2024/02/23 07:18:17;;;;;;;6.10;4.10;;;;;;;7.10;100.00;97565.38;451646;1252;125936;-60
2024/02/23 07:28:23;;;;;;;3.50;3.20;;;;;;;7.18;100.00;97574.88;451450;1252;140404;-61
2024/02/23 07:38:30;;;;;;;5.10;3.50;;;;;;;7.29;100.00;97581.46;451318;1253;139058;-61
2024/02/23 07:48:36;;;;;;;3.40;3.10;;;;;;;7.36;100.00;97591.65;451554;1252;138864;-58
2024/02/23 07:58:42;;;;;;;4.60;4.00;;;;;;;7.43;100.00;97608.69;451419;1252;139805;-57
2024/02/23 08:08:48;;;;;;;8.00;6.40;;;;;;;7.48;100.00;97633.02;451391;1252;139398;-57
2024/02/23 08:18:54;;;;;;;6.20;4.70;;;;;;;7.57;100.00;97639.71;451527;1253;138872;-55
2024/02/23 08:29:00;;;;;;;5.30;4.80;;;;;;;7.71;100.00;97651.31;451476;1255;138887;-56
2024/02/23 08:39:06;;;;;;;5.20;4.60;;;;;;;7.85;100.00;97658.84;451519;1253;139482;-57
2024/02/23 08:49:15;;;;;;;6.40;4.80;;;;;;;8.01;100.00;97667.47;451593;1252;139013;-57
2024/02/23 08:59:21;;;;;;;5.70;4.10;;;;;;;8.16;100.00;97684.83;451518;1252;139290;-57
2024/02/23 09:09:27;;;;;;;5.90;5.20;;;;;;;8.24;100.00;97691.89;451521;1252;139594;-56
2024/02/23 09:19:33;;;;;;;6.70;4.80;;;;;;;8.26;100.00;97700.34;451391;1252;140308;-57
2024/02/23 09:29:41;;;;;;;6.20;4.30;;;;;;;8.35;100.00;97695.67;451579;1252;140101;-57
2024/02/23 09:39:47;;;;;;;7.00;5.80;;;;;;;8.55;100.00;97712.66;451530;1252;139147;-57
2024/02/23 09:49:53;;;;;;;5.20;4.70;;;;;;;8.67;100.00;97729.02;451449;1252;139221;-56
2024/02/23 10:00:00;;;;;;;6.80;4.30;;;;;;;8.75;100.00;97751.71;441704;1256;140001;-54
2024/02/23 10:10:10;;;;;;;7.00;5.40;;;;;;;8.77;100.00;97756.27;436757;1257;139131;-55
2024/02/23 10:20:17;;;;;;;8.00;5.70;;;;;;;8.87;100.00;97769.71;451423;1252;139908;-61
2024/02/23 10:30:29;;;;;;;6.50;4.60;;;;;;;9.01;100.00;97772.77;451555;1254;139561;-60
2024/02/23 10:40:37;;;;;;;6.60;5.90;;;;;;;9.14;100.00;97784.20;451608;1252;140077;-57
2024/02/23 10:50:44;;;;;;;6.70;5.20;;;;;;;9.46;100.00;97797.48;451481;1252;139965;-60
2024/02/23 11:00:50;;;;;;;5.90;5.40;;;;;;;9.67;100.00;97814.89;451655;1254;139188;-61
2024/02/23 11:10:56;;;;;;;5.40;4.60;;;;;;;9.73;100.00;97831.14;451423;1252;139020;-60
2024/02/23 11:21:04;;;;;;;5.60;5.10;;;;;;;9.74;100.00;97841.33;451575;1252;139664;-60
2024/02/23 11:31:15;;;;;;;6.50;4.50;;;;;;;9.72;100.00;97848.16;451671;1253;139210;-56
2024/02/23 11:41:22;;;;;;;5.80;4.40;;;;;;;9.66;100.00;97868.91;451402;1253;140120;-54
2024/02/23 11:51:29;;;;;;;5.30;4.80;;;;;;;9.66;100.00;97873.65;451574;1253;140968;-56
2024/02/23 12:01:37;;;;;;;4.50;4.10;;;;;;;9.84;100.00;97871.02;451528;1252;139625;-55
2024/02/23 12:11:43;;;;;;;5.20;4.50;;;;;;;9.95;100.00;97876.51;451670;1252;139574;-61
2024/02/23 12:21:49;;;;;;;5.40;4.90;;;;;;;10.07;100.00;97885.67;441544;1252;139127;-60
2024/02/23 12:32:05;;;;;;;8.30;7.10;;;;;;;10.21;100.00;97893.14;451426;1255;139852;-61
2024/02/23 12:42:11;;;;;;;5.70;5.20;;;;;;;10.30;100.00;97896.89;451537;1254;139163;-61
2024/02/23 12:52:17;;;;;;;7.20;5.80;;;;;;;10.38;100.00;97913.52;451391;1253;139320;-61
2024/02/23 13:02:23;;;;;;;8.20;6.80;;;;;;;10.28;100.00;97914.20;451514;1254;140159;-60
2024/02/23 13:12:30;;;;;;;9.10;6.80;;;;;;;10.31;100.00;97922.84;451645;1253;139253;-60
2024/02/23 13:22:38;;;;;;;7.10;6.10;;;;;;;10.35;100.00;97919.84;451532;1252;140398;-56
2024/02/23 13:32:46;;;;;;;5.90;5.30;;;;;;;10.48;100.00;97946.58;451510;1253;139986;-64
2024/02/23 13:42:53;;;;;;;7.50;6.40;;;;;;;10.54;100.00;97959.30;451522;1253;140273;-61
2024/02/23 13:52:59;;;;;;;7.90;5.70;;;;;;;10.51;100.00;97961.55;451326;1252;140476;-60
2024/02/23 14:03:06;;;;;;;10.00;7.70;;;;;;;10.39;100.00;97960.61;451406;1253;140040;-60
2024/02/23 14:13:12;;;;;;;12.00;7.60;;;;;;;10.23;100.00;97965.52;451529;1256;140722;-60
2024/02/23 14:23:19;;;;;;;9.70;7.90;;;;;;;10.13;100.00;97974.69;451448;1253;140603;-63
2024/02/23 14:33:27;;;;;;;10.70;7.60;;;;;;;10.10;100.00;97991.35;451466;1253;139784;-63
2024/02/23 14:43:33;;;;;;;9.20;7.50;;;;;;;9.99;100.00;97999.66;451550;1254;140459;-59
2024/02/23 14:53:40;;;;;;;10.00;6.80;;;;;;;9.86;100.00;98004.91;451680;1254;140615;-60
2024/02/23 15:03:47;;;;;;;10.50;8.30;;;;;;;9.73;100.00;98012.31;451632;1253;140254;-56
2024/02/23 15:13:57;;;;;;;5.30;4.20;;;;;;;9.58;100.00;98024.20;451632;1252;139986;-57
2024/02/23 15:24:06;;;;;;;3.90;3.40;;;;;;;9.11;100.00;98030.23;451654;1256;139124;-63
2024/02/23 15:34:12;;;;;;;5.40;4.10;;;;;;;8.56;100.00;98043.73;451442;1255;140180;-63
2024/02/23 15:44:18;;;;;;;7.10;5.30;;;;;;;8.15;100.00;98054.08;451613;1254;139541;-56
2024/02/23 15:54:27;;;;;;;9.20;7.10;;;;;;;7.75;100.00;98069.66;451768;1256;139456;-56
2024/02/23 16:04:33;;;;;;;6.30;5.30;;;;;;;7.49;100.00;98062.46;451545;1256;139762;-61
2024/02/23 16:14:39;;;;;;;8.30;7.30;;;;;;;7.30;100.00;98074.64;451629;1254;139635;-62
2024/02/23 16:24:49;;;;;;;8.90;7.70;;;;;;;7.14;100.00;98086.95;441712;1253;138866;-62
2024/02/23 16:34:55;;;;;;;12.80;8.60;;;;;;;7.03;100.00;98099.55;437496;1258;139160;-62
2024/02/23 16:45:01;;;;;;;14.10;11.50;;;;;;;6.95;100.00;98112.36;436608;1254;139519;-60
2024/02/23 16:55:09;;;;;;;19.90;16.80;;;;;;;6.86;100.00;98106.91;436464;1257;139330;-61
2024/02/23 17:05:13;;;;;;;;;;;;;;;6.77;100.00;98123.06;451567;1254;140313;-60
2024/02/23 17:15:20;;;;;;;14.40;12.90;;;;;;;6.73;100.00;98131.11;448031;1256;126194;-61
2024/02/23 17:25:26;;;;;;;23.30;19.20;;;;;;;6.72;100.00;98137.41;436546;1257;139565;-61
2024/02/23 17:35:34;;;;;;;23.10;18.60;;;;;;;6.70;100.00;98141.23;451557;1254;139885;-61
2024/02/23 17:45:40;;;;;;;24.40;19.80;;;;;;;6.69;100.00;98143.73;451486;1254;139953;-62
2024/02/23 17:55:46;;;;;;;26.30;21.50;;;;;;;6.69;100.00;98147.04;451430;1254;139424;-61
2024/02/23 18:05:54;;;;;;;35.60;24.70;;;;;;;6.73;100.00;98145.88;451606;1253;139966;-61
2024/02/23 18:16:03;;;;;;;59.90;39.20;;;;;;;6.78;100.00;98142.11;451590;1256;139636;-59
2024/02/23 18:26:11;;;;;;;34.80;25.70;;;;;;;6.83;100.00;98137.58;451459;1254;140413;-61
2024/02/23 18:36:17;;;;;;;39.00;30.20;;;;;;;6.78;100.00;98141.08;441888;1257;140088;-57
2024/02/23 18:46:23;;;;;;;32.50;26.00;;;;;;;6.75;100.00;98144.17;447444;1254;5153073;-55
2024/02/23 18:56:30;;;;;;;40.10;34.90;;;;;;;6.75;100.00;98138.51;451513;1253;140780;-57
2024/02/23 19:06:38;;;;;;;38.60;34.40;;;;;;;6.72;100.00;98139.21;448452;1254;139756;-63
2024/02/23 19:16:45;;;;;;;37.40;33.50;;;;;;;6.73;100.00;98145.21;436632;1255;139854;-63
2024/02/23 19:26:52;;;;;;;45.20;34.90;;;;;;;6.73;100.00;98138.77;436558;1256;140236;-62
2024/02/23 19:36:59;;;;;;;44.70;35.20;;;;;;;6.67;100.00;98145.63;451502;1253;139885;-61
2024/02/23 19:47:07;;;;;;;37.60;27.00;;;;;;;6.62;100.00;98152.41;451379;1253;139165;-62
2024/02/23 19:57:14;;;;;;;28.90;23.70;;;;;;;6.61;100.00;98143.45;451501;1253;140168;-62
2024/02/23 20:07:20;;;;;;;69.20;53.10;;;;;;;6.60;100.00;98125.63;451595;1253;141277;-61
2024/02/23 20:17:31;;;;;;;34.10;28.50;;;;;;;6.57;100.00;98133.28;451500;1253;141111;-62
2024/02/23 20:27:41;;;;;;;39.50;29.00;;;;;;;6.60;100.00;98128.94;451484;1253;140420;-61
2024/02/23 20:37:47;;;;;;;27.60;23.30;;;;;;;6.60;100.00;98115.88;451517;1253;139802;-61
2024/02/23 20:47:53;;;;;;;22.20;19.80;;;;;;;6.60;100.00;98111.35;451333;1252;139280;-63
2024/02/23 20:57:59;;;;;;;30.10;23.70;;;;;;;6.62;100.00;98113.30;451359;1253;140444;-62
2024/02/23 21:08:06;;;;;;;30.10;23.00;;;;;;;6.61;100.00;98106.75;451212;1252;140216;-61
2024/02/23 21:18:15;;;;;;;32.30;26.10;;;;;;;6.57;100.00;98099.21;451479;1252;139381;-61
2024/02/23 21:28:21;;;;;;;27.30;23.60;;;;;;;6.58;100.00;98092.89;451435;1252;139751;-61
2024/02/23 21:38:27;;;;;;;27.00;23.40;;;;;;;6.61;100.00;98084.53;451409;1253;140331;-62
2024/02/23 21:48:35;;;;;;;30.90;24.80;;;;;;;6.61;100.00;98082.92;451539;1252;141210;-62
2024/02/23 21:58:41;;;;;;;28.50;24.90;;;;;;;6.60;100.00;98073.94;451393;1252;139547;-55
2024/02/23 22:08:47;;;;;;;34.10;27.20;;;;;;;6.56;100.00;98077.52;451305;1252;139844;-62
2024/02/23 22:18:53;;;;;;;25.90;21.80;;;;;;;6.51;100.00;98069.02;451329;1252;140325;-54
2024/02/23 22:29:00;;;;;;;28.90;21.90;;;;;;;6.47;100.00;98070.21;451251;1252;140056;-56
2024/02/23 22:39:08;;;;;;;24.70;20.50;;;;;;;6.42;100.00;98061.69;451442;1252;139921;-61
2024/02/23 22:49:14;;;;;;;27.10;19.00;;;;;;;6.41;100.00;98053.44;451374;1253;141674;-61
2024/02/23 22:59:20;;;;;;;23.80;16.70;;;;;;;6.40;100.00;98050.73;451404;1253;139649;-61
2024/02/23 23:09:26;;;;;;;21.10;14.80;;;;;;;6.39;100.00;98043.42;451502;1252;139291;-61
2024/02/23 23:19:34;;;;;;;21.50;15.40;;;;;;;6.39;100.00;98057.20;451383;1252;139801;-60
2024/02/23 23:29:42;;;;;;;20.60;16.90;;;;;;;6.36;100.00;98045.05;451426;1252;139560;-61
2024/02/23 23:39:50;;;;;;;20.30;15.50;;;;;;;6.34;100.00;98026.95;451432;1252;139550;-61
2024/02/23 23:49:56;;;;;;;;;;;;;;;6.32;100.00;98005.35;451400;1252;140204;-63
